createdAt,value
2017-09-28T00:01:18.268Z,67.00
2017-09-28T00:03:46.100Z,66.90
2017-09-28T00:06:13.893Z,67.10
2017-09-28T00:08:42.463Z,67.20
2017-09-28T00:11:10.328Z,67.20
2017-09-28T00:13:38.105Z,67.30
2017-09-28T00:16:05.927Z,67.30
2017-09-28T00:18:33.777Z,67.40
2017-09-28T00:21:01.599Z,67.50
2017-09-28T00:23:29.472Z,67.50
2017-09-28T00:25:57.237Z,67.50
2017-09-28T00:28:25.000Z,67.50
2017-09-28T00:30:52.904Z,67.20
2017-09-28T00:33:21.455Z,67.60
2017-09-28T00:35:49.364Z,67.50
2017-09-28T00:38:17.677Z,67.60
2017-09-28T00:40:45.478Z,67.70
2017-09-28T00:43:13.401Z,67.50
2017-09-28T00:45:41.284Z,67.70
2017-09-28T00:48:09.118Z,67.60
2017-09-28T00:50:36.876Z,67.50
2017-09-28T00:53:04.618Z,67.70
2017-09-28T00:55:32.414Z,67.60
2017-09-28T00:58:00.249Z,68.20
2017-09-28T01:00:27.986Z,67.60
2017-09-28T01:02:55.776Z,67.70
2017-09-28T01:05:23.584Z,67.20
2017-09-28T01:07:51.403Z,67.00
2017-09-28T01:10:19.150Z,67.30
2017-09-28T01:12:47.031Z,67.40
2017-09-28T01:15:14.787Z,67.40
2017-09-28T01:17:42.648Z,67.50
2017-09-28T01:20:10.514Z,67.30
2017-09-28T01:22:38.380Z,67.40
2017-09-28T01:25:06.265Z,67.30
2017-09-28T01:27:34.036Z,67.40
2017-09-28T01:30:01.928Z,67.40
2017-09-28T01:32:29.791Z,67.30
2017-09-28T01:34:57.756Z,67.50
2017-09-28T01:37:25.533Z,67.60
2017-09-28T01:39:53.390Z,67.50
2017-09-28T01:42:21.180Z,67.80
2017-09-28T01:44:49.077Z,68.20
2017-09-28T01:47:16.832Z,68.30
2017-09-28T01:49:44.723Z,68.60
2017-09-28T01:52:12.477Z,68.20
2017-09-28T01:54:41.069Z,68.10
2017-09-28T01:57:08.946Z,68.10
2017-09-28T01:59:36.801Z,67.80
2017-09-28T02:02:04.686Z,68.10
2017-09-28T02:04:32.537Z,68.50
2017-09-28T02:07:01.054Z,68.30
2017-09-28T02:09:28.935Z,69.00
2017-09-28T02:11:56.809Z,68.00
2017-09-28T02:14:24.570Z,68.00
2017-09-28T02:16:52.351Z,67.90
2017-09-28T02:19:20.110Z,68.00
2017-09-28T02:21:47.938Z,68.10
2017-09-28T02:24:15.756Z,68.00
2017-09-28T02:26:43.584Z,67.90
2017-09-28T02:29:11.379Z,67.90
2017-09-28T02:31:39.112Z,67.90
2017-09-28T02:34:06.885Z,68.00
2017-09-28T02:36:34.719Z,68.10
2017-09-28T02:39:03.415Z,68.60
2017-09-28T02:41:31.985Z,68.80
2017-09-28T02:43:59.733Z,68.30
2017-09-28T02:46:27.531Z,68.50
2017-09-28T02:48:55.266Z,68.90
2017-09-28T02:51:23.022Z,69.00
2017-09-28T02:53:50.835Z,69.00
2017-09-28T02:56:18.661Z,69.30
2017-09-28T02:58:46.392Z,69.50
2017-09-28T03:01:14.303Z,69.60
2017-09-28T03:03:42.059Z,69.50
2017-09-28T03:06:09.862Z,69.40
2017-09-28T03:08:37.619Z,69.60
2017-09-28T03:11:05.373Z,69.40
2017-09-28T03:13:33.144Z,69.50
2017-09-28T03:16:00.926Z,69.40
2017-09-28T03:18:28.740Z,69.50
2017-09-28T03:20:56.473Z,69.10
2017-09-28T03:23:25.178Z,69.10
2017-09-28T03:25:52.927Z,69.10
2017-09-28T03:28:21.466Z,69.30
2017-09-28T03:30:49.304Z,69.30
2017-09-28T03:33:17.098Z,69.00
2017-09-28T03:35:44.927Z,69.30
2017-09-28T03:38:12.731Z,69.10
2017-09-28T03:40:40.540Z,69.20
2017-09-28T03:43:08.352Z,69.20
2017-09-28T03:45:36.193Z,69.30
2017-09-28T03:48:04.015Z,69.30
2017-09-28T03:50:31.835Z,69.40
2017-09-28T03:52:59.662Z,70.30
2017-09-28T03:55:27.453Z,69.50
2017-09-28T03:57:55.330Z,69.70
2017-09-28T04:00:23.935Z,69.90
2017-09-28T04:02:51.748Z,69.70
2017-09-28T04:05:19.527Z,70.00
2017-09-28T04:07:47.380Z,69.80
2017-09-28T04:10:15.133Z,69.90
2017-09-28T04:12:42.855Z,69.90
2017-09-28T04:15:11.489Z,69.80
2017-09-28T04:17:39.365Z,69.80
2017-09-28T04:20:07.178Z,69.60
2017-09-28T04:22:35.024Z,69.90
2017-09-28T04:25:02.856Z,69.60
2017-09-28T04:27:30.677Z,69.60
2017-09-28T04:29:59.223Z,69.90
2017-09-28T04:32:27.791Z,70.50
2017-09-28T04:34:55.570Z,69.80
2017-09-28T04:37:23.571Z,69.80
2017-09-28T04:39:51.395Z,70.00
2017-09-28T04:42:19.220Z,70.10
2017-09-28T04:44:47.061Z,70.50
2017-09-28T04:47:14.851Z,70.40
2017-09-28T04:49:43.964Z,70.40
2017-09-28T04:52:13.274Z,70.30
2017-09-28T04:54:41.138Z,70.20
2017-09-28T04:57:08.929Z,70.20
2017-09-28T04:59:37.510Z,70.20
2017-09-28T05:02:05.412Z,70.40
2017-09-28T05:04:33.259Z,70.40
2017-09-28T05:07:01.057Z,70.50
2017-09-28T05:09:28.847Z,70.70
2017-09-28T05:11:56.753Z,70.50
2017-09-28T05:14:24.532Z,70.30
2017-09-28T05:16:52.394Z,70.50
2017-09-28T05:19:20.278Z,70.70
2017-09-28T05:21:48.079Z,70.70
2017-09-28T05:24:15.889Z,71.00
2017-09-28T05:26:43.631Z,70.80
2017-09-28T05:29:12.183Z,71.50
2017-09-28T05:31:39.944Z,71.00
2017-09-28T05:34:07.835Z,71.20
2017-09-28T05:36:35.721Z,71.10
2017-09-28T05:39:03.616Z,70.80
2017-09-28T05:41:31.452Z,70.50
2017-09-28T05:43:59.225Z,70.60
2017-09-28T05:46:26.985Z,70.90
2017-09-28T05:48:54.825Z,71.00
2017-09-28T05:51:22.677Z,70.80
2017-09-28T05:53:50.438Z,70.80
2017-09-28T05:56:18.282Z,70.80
2017-09-28T05:58:46.063Z,70.80
2017-09-28T06:01:13.939Z,71.00
2017-09-28T06:03:41.787Z,71.20
2017-09-28T06:06:09.679Z,70.90
2017-09-28T06:08:37.611Z,71.00
2017-09-28T06:11:06.133Z,71.00
2017-09-28T06:13:33.944Z,70.80
2017-09-28T06:16:01.818Z,70.80
2017-09-28T06:18:29.578Z,70.60
2017-09-28T06:20:57.531Z,70.60
2017-09-28T06:23:25.249Z,70.40
2017-09-28T06:25:53.273Z,70.90
2017-09-28T06:28:21.793Z,70.10
2017-09-28T06:30:50.335Z,70.60
2017-09-28T06:33:18.099Z,70.50
2017-09-28T06:35:45.944Z,70.70
2017-09-28T06:38:13.800Z,70.70
2017-09-28T06:40:42.373Z,71.00
2017-09-28T06:43:10.138Z,70.90
2017-09-28T06:45:37.895Z,71.80
2017-09-28T06:48:05.743Z,70.70
2017-09-28T06:50:33.536Z,70.80
2017-09-28T06:53:02.054Z,70.20
2017-09-28T06:55:29.871Z,70.10
2017-09-28T06:57:59.740Z,70.40
2017-09-28T07:00:28.179Z,70.40
2017-09-28T07:02:55.982Z,70.40
2017-09-28T07:05:23.797Z,70.40
2017-09-28T07:07:51.615Z,70.30
2017-09-28T07:10:19.406Z,69.80
2017-09-28T07:12:47.150Z,70.60
2017-09-28T07:15:14.964Z,70.40
2017-09-28T07:17:42.737Z,70.20
2017-09-28T07:20:10.528Z,69.70
2017-09-28T07:22:38.326Z,70.10
2017-09-28T07:25:06.161Z,70.10
2017-09-28T07:27:33.912Z,70.60
2017-09-28T07:30:01.682Z,70.50
2017-09-28T07:32:29.559Z,71.00
2017-09-28T07:34:57.340Z,70.40
2017-09-28T07:37:25.851Z,70.50
2017-09-28T07:39:53.802Z,70.50
2017-09-28T07:42:22.303Z,70.40
2017-09-28T07:44:50.057Z,70.40
2017-09-28T07:47:17.911Z,71.00
2017-09-28T07:49:46.148Z,71.20
2017-09-28T07:52:19.777Z,72.60
2017-09-28T07:54:47.623Z,70.10
2017-09-28T07:57:15.444Z,69.50
2017-09-28T07:59:43.302Z,69.50
2017-09-28T08:02:11.834Z,69.60
2017-09-28T08:04:39.613Z,69.50
2017-09-28T08:07:07.367Z,68.90
2017-09-28T08:09:35.185Z,69.90
2017-09-28T08:12:03.015Z,69.70
2017-09-28T08:14:30.875Z,69.10
2017-09-28T08:16:58.673Z,71.30
2017-09-28T08:19:26.468Z,69.00
2017-09-28T08:21:54.243Z,69.50
2017-09-28T08:24:22.105Z,69.20
2017-09-28T08:26:49.920Z,69.50
2017-09-28T08:29:17.714Z,70.00
2017-09-28T08:31:45.573Z,69.90
2017-09-28T08:34:13.323Z,69.60
2017-09-28T08:36:41.357Z,69.70
2017-09-28T08:39:09.150Z,69.20
2017-09-28T08:41:36.983Z,68.60
2017-09-28T08:44:05.427Z,69.10
2017-09-28T08:46:33.194Z,69.00
2017-09-28T08:49:00.947Z,69.10
2017-09-28T08:51:28.740Z,69.20
2017-09-28T08:53:56.574Z,70.30
2017-09-28T08:56:24.346Z,70.70
2017-09-28T08:58:52.133Z,71.10
2017-09-28T09:01:19.873Z,70.80
2017-09-28T09:03:47.763Z,71.00
2017-09-28T09:06:15.532Z,71.00
2017-09-28T09:08:43.305Z,70.90
2017-09-28T09:11:11.130Z,70.90
2017-09-28T09:13:38.954Z,70.60
2017-09-28T09:16:06.764Z,70.90
2017-09-28T09:18:34.510Z,72.90
2017-09-28T09:21:02.275Z,70.30
2017-09-28T09:23:30.109Z,69.60
2017-09-28T09:25:57.908Z,71.30
2017-09-28T09:28:25.686Z,70.70
2017-09-28T09:30:53.496Z,70.60
2017-09-28T09:33:21.308Z,68.50
2017-09-28T09:35:49.114Z,68.50
2017-09-28T09:38:16.870Z,69.00
2017-09-28T09:40:44.711Z,69.00
2017-09-28T09:43:12.519Z,70.00
2017-09-28T09:45:40.323Z,69.50
2017-09-28T09:48:08.089Z,69.00
2017-09-28T09:50:35.912Z,69.30
2017-09-28T09:53:03.731Z,66.70
2017-09-28T09:55:31.478Z,67.00
2017-09-28T09:57:59.309Z,68.20
2017-09-28T10:00:28.552Z,66.40
2017-09-28T10:02:57.588Z,63.40
2017-09-28T10:05:25.563Z,63.30
2017-09-28T10:08:01.946Z,69.10
2017-09-28T10:10:31.539Z,63.20
2017-09-28T10:13:08.429Z,66.20
2017-09-28T10:15:41.699Z,68.80
2017-09-28T10:18:09.745Z,62.80
2017-09-28T10:20:37.611Z,68.50
2017-09-28T10:23:05.365Z,67.80
2017-09-28T10:25:33.144Z,67.80
2017-09-28T10:28:00.875Z,59.30
2017-09-28T10:30:28.687Z,66.40
2017-09-28T10:32:56.592Z,66.60
2017-09-28T10:35:24.408Z,65.80
2017-09-28T10:37:52.213Z,66.10
2017-09-28T10:40:20.054Z,59.80
2017-09-28T10:42:47.860Z,60.40
2017-09-28T10:45:18.209Z,58.90
2017-09-28T10:47:45.979Z,58.80
2017-09-28T10:50:13.799Z,63.20
2017-09-28T10:52:41.721Z,62.30
2017-09-28T10:55:09.539Z,62.20
2017-09-28T10:57:37.354Z,66.70
2017-09-28T11:00:05.134Z,65.90
2017-09-28T11:02:32.879Z,64.80
2017-09-28T11:05:00.675Z,59.50
2017-09-28T11:07:28.510Z,59.40
2017-09-28T11:09:56.360Z,63.20
2017-09-28T11:12:24.940Z,65.80
2017-09-28T11:14:52.769Z,65.50
2017-09-28T11:17:20.567Z,62.70
2017-09-28T11:19:48.324Z,58.40
2017-09-28T11:22:16.241Z,59.20
2017-09-28T11:24:43.973Z,56.50
2017-09-28T11:27:14.445Z,56.00
2017-09-28T11:29:43.508Z,56.00
2017-09-28T11:32:12.731Z,64.20
2017-09-28T11:34:41.593Z,55.50
2017-09-28T11:37:09.346Z,59.10
2017-09-28T11:39:37.096Z,56.20
2017-09-28T11:42:04.859Z,56.90
2017-09-28T11:44:32.750Z,58.50
2017-09-28T11:47:00.477Z,59.50
2017-09-28T11:49:28.285Z,55.10
2017-09-28T11:51:56.180Z,62.30
2017-09-28T11:54:23.971Z,55.40
2017-09-28T11:56:51.750Z,55.70
2017-09-28T11:59:19.575Z,64.00
2017-09-28T12:01:47.405Z,64.40
2017-09-28T12:04:15.218Z,63.10
2017-09-28T12:06:43.962Z,64.60
2017-09-28T12:09:11.685Z,65.40
2017-09-28T12:11:39.519Z,64.50
2017-09-28T12:14:09.748Z,60.00
2017-09-28T12:16:37.606Z,57.20
2017-09-28T12:19:05.467Z,58.30
2017-09-28T12:21:33.259Z,59.90
2017-09-28T12:24:01.775Z,56.50
2017-09-28T12:26:29.538Z,56.40
2017-09-28T12:28:57.371Z,54.40
2017-09-28T12:31:25.613Z,55.10
2017-09-28T12:33:53.501Z,55.80
2017-09-28T12:36:21.383Z,54.50
2017-09-28T12:38:49.269Z,57.50
2017-09-28T12:41:17.697Z,54.00
2017-09-28T12:43:46.425Z,57.50
2017-09-28T12:46:14.209Z,57.70
2017-09-28T12:48:41.979Z,58.50
2017-09-28T12:51:09.856Z,53.50
2017-09-28T12:53:40.476Z,56.80
2017-09-28T12:56:09.161Z,57.90
2017-09-28T12:58:39.514Z,57.20
2017-09-28T13:01:08.177Z,57.20
2017-09-28T13:03:36.119Z,57.70
2017-09-28T13:06:04.240Z,54.00
2017-09-28T13:11:47.463Z,57.20
2017-09-28T13:27:22.494Z,59.40
2017-09-28T13:29:51.176Z,58.10
2017-09-28T13:32:19.803Z,59.00
2017-09-28T13:34:47.727Z,55.50
2017-09-28T13:37:16.228Z,55.50
2017-09-28T13:39:44.323Z,54.80
2017-09-28T13:42:12.763Z,52.40
2017-09-28T13:44:40.728Z,54.50
2017-09-28T13:47:09.630Z,55.00
2017-09-28T13:49:37.556Z,52.30
2017-09-28T13:52:06.393Z,53.50
2017-09-28T13:54:34.406Z,53.60
2017-09-28T13:57:02.504Z,50.10
2017-09-28T13:59:30.656Z,50.60
2017-09-28T14:02:00.200Z,53.50
2017-09-28T14:04:28.912Z,53.40
2017-09-28T14:06:58.824Z,53.80
2017-09-28T14:09:26.796Z,56.70
2017-09-28T14:11:54.632Z,57.50
2017-09-28T14:14:22.507Z,56.00
2017-09-28T14:16:50.451Z,56.60
2017-09-28T14:19:18.316Z,56.80
2017-09-28T14:21:46.937Z,56.40
2017-09-28T14:24:14.789Z,56.40
2017-09-28T14:26:42.608Z,54.20
2017-09-28T14:29:10.554Z,54.50
2017-09-28T14:31:38.364Z,55.40
2017-09-28T14:34:06.892Z,52.20
2017-09-28T14:36:34.862Z,52.10
2017-09-28T14:39:02.733Z,55.80
2017-09-28T14:41:30.570Z,54.20
2017-09-28T14:43:58.356Z,55.60
2017-09-28T14:46:26.225Z,57.10
2017-09-28T14:48:54.004Z,55.20
2017-09-28T14:51:22.905Z,54.50
2017-09-28T14:53:50.786Z,56.60
2017-09-28T14:56:18.595Z,58.00
2017-09-28T14:58:46.571Z,55.60
2017-09-28T15:01:15.967Z,54.30
2017-09-28T15:03:46.199Z,53.90
2017-09-28T15:06:15.034Z,58.00
2017-09-28T15:08:43.030Z,58.50
2017-09-28T15:11:10.822Z,58.00
2017-09-28T15:13:38.652Z,58.00
2017-09-28T15:16:06.951Z,58.90
2017-09-28T15:18:34.870Z,59.20
2017-09-28T15:21:02.675Z,59.50
2017-09-28T15:23:30.587Z,59.20
2017-09-28T15:25:59.279Z,60.20
2017-09-28T15:28:34.180Z,59.50
2017-09-28T15:31:02.067Z,58.60
2017-09-28T15:33:39.102Z,58.90
2017-09-28T15:36:06.952Z,58.30
2017-09-28T15:38:34.775Z,58.40
2017-09-28T15:41:03.628Z,57.20
2017-09-28T15:43:31.477Z,56.70
2017-09-28T15:46:01.626Z,56.50
2017-09-28T15:48:29.632Z,57.60
2017-09-28T15:50:58.238Z,56.20
2017-09-28T15:53:26.124Z,57.40
2017-09-28T15:55:53.975Z,57.20
2017-09-28T15:58:22.842Z,57.00
2017-09-28T16:00:51.719Z,57.50
2017-09-28T16:03:21.719Z,57.80
2017-09-28T16:05:58.758Z,56.60
2017-09-28T16:08:26.753Z,58.00
2017-09-28T16:10:59.596Z,55.10
2017-09-28T16:13:39.831Z,55.40
2017-09-28T16:16:22.381Z,55.00
2017-09-28T16:18:50.454Z,54.70
2017-09-28T16:21:18.405Z,54.40
2017-09-28T16:40:08.757Z,55.90
2017-09-28T16:45:10.917Z,54.50
2017-09-28T16:47:48.305Z,55.60
2017-09-28T17:07:22.882Z,50.90
2017-09-28T17:09:53.417Z,51.60
2017-09-28T17:12:21.366Z,57.50
2017-09-28T17:14:49.148Z,54.40
2017-09-28T17:17:17.105Z,57.80
2017-09-28T17:19:45.032Z,50.80
2017-09-28T17:22:12.884Z,60.20
2017-09-28T17:24:41.046Z,58.70
2017-09-28T17:27:08.910Z,59.10
2017-09-28T17:29:36.679Z,59.40
2017-09-28T17:32:04.507Z,59.70
2017-09-28T17:34:32.366Z,60.10
2017-09-28T17:37:00.170Z,58.90
2017-09-28T17:39:28.210Z,53.50
2017-09-28T17:41:56.128Z,56.20
2017-09-28T17:44:23.967Z,48.70
2017-09-28T17:46:51.767Z,48.50
2017-09-28T17:49:19.989Z,48.70
2017-09-28T17:51:47.852Z,48.80
2017-09-28T17:54:15.641Z,49.40
2017-09-28T17:56:45.970Z,50.00
2017-09-28T17:59:15.147Z,49.80
2017-09-28T18:01:44.411Z,50.00
2017-09-28T18:04:12.231Z,50.50
2017-09-28T18:06:40.119Z,50.50
2017-09-28T18:09:08.121Z,51.00
2017-09-28T18:14:10.491Z,51.80
2017-09-28T18:16:43.288Z,51.60
2017-09-28T18:19:11.218Z,51.00
2017-09-28T18:24:24.729Z,51.90
2017-09-28T18:26:57.703Z,51.60
2017-09-28T18:29:26.367Z,52.00
2017-09-28T18:31:54.244Z,52.50
2017-09-28T18:37:12.123Z,53.10
2017-09-28T18:39:41.899Z,52.70
2017-09-28T18:42:10.838Z,52.80
2017-09-28T18:44:38.656Z,52.60
2017-09-28T18:47:06.565Z,52.50
2017-09-28T18:49:35.472Z,52.20
2017-09-28T18:52:04.205Z,52.00
2017-09-28T18:54:32.076Z,52.00
2017-09-28T18:57:00.006Z,52.10
2017-09-28T18:59:29.333Z,52.40
2017-09-28T19:01:58.504Z,52.40
2017-09-28T19:07:11.759Z,53.40
2017-09-28T19:09:39.674Z,53.40
2017-09-28T19:12:07.723Z,52.80
2017-09-28T19:14:36.804Z,52.70
2017-09-28T19:17:05.900Z,53.00
2017-09-28T19:19:35.159Z,53.00
2017-09-28T19:22:14.772Z,53.20
2017-09-28T19:24:47.022Z,53.10
2017-09-28T19:27:15.320Z,53.20
2017-09-28T19:29:47.928Z,53.90
2017-09-28T19:32:18.885Z,53.90
2017-09-28T19:34:47.551Z,53.90
2017-09-28T19:37:22.956Z,54.00
2017-09-28T19:39:52.167Z,54.10
2017-09-28T19:42:21.918Z,54.50
2017-09-28T19:44:51.086Z,54.50
2017-09-28T19:47:20.106Z,54.60
2017-09-28T19:49:49.069Z,55.10
2017-09-28T19:52:19.214Z,54.60
2017-09-28T19:54:48.108Z,54.90
2017-09-28T19:57:16.044Z,55.00
2017-09-28T19:59:43.837Z,55.10
2017-09-28T20:02:12.773Z,55.10
2017-09-28T20:04:42.725Z,55.00
2017-09-28T20:07:19.415Z,55.20
2017-09-28T20:09:47.364Z,55.10
2017-09-28T20:12:15.221Z,55.70
2017-09-28T20:14:43.232Z,55.60
2017-09-28T20:17:11.051Z,55.80
2017-09-28T20:19:38.874Z,55.50
2017-09-28T20:22:06.800Z,56.00
2017-09-28T20:24:34.760Z,56.40
2017-09-28T20:27:02.559Z,56.30
2017-09-28T20:29:30.426Z,56.60
2017-09-28T20:31:58.223Z,56.80
2017-09-28T20:34:26.965Z,56.80
2017-09-28T20:36:54.968Z,57.00
2017-09-28T20:39:33.708Z,56.60
2017-09-28T20:42:01.501Z,56.50
2017-09-28T20:44:29.298Z,57.00
2017-09-28T20:46:57.928Z,57.30
2017-09-28T20:49:25.701Z,57.20
2017-09-28T20:51:53.522Z,57.10
2017-09-28T20:54:22.212Z,58.10
2017-09-28T20:56:50.896Z,58.00
2017-09-28T20:59:18.726Z,57.90
2017-09-28T21:01:46.569Z,57.70
2017-09-28T21:04:14.430Z,58.10
2017-09-28T21:06:43.074Z,58.10
2017-09-28T21:09:11.477Z,58.20
2017-09-28T21:11:39.330Z,58.60
2017-09-28T21:14:08.257Z,58.60
2017-09-28T22:26:44.320Z,57.90
2017-09-28T22:29:13.029Z,60.00
2017-09-28T22:31:41.056Z,60.00
2017-09-28T22:34:08.971Z,59.90
2017-09-28T22:36:36.963Z,59.90
2017-09-28T22:39:05.272Z,59.90
2017-09-28T22:41:33.183Z,59.70
2017-09-28T22:44:01.183Z,59.70
2017-09-28T22:46:33.151Z,59.70
2017-09-28T22:49:01.071Z,59.70
2017-09-28T22:51:28.895Z,59.90
2017-09-28T22:53:56.687Z,59.60
2017-09-28T22:56:24.478Z,59.70
2017-09-28T22:58:52.520Z,59.60
2017-09-28T23:01:20.539Z,59.50
2017-09-28T23:03:48.439Z,59.50
2017-09-28T23:06:16.493Z,59.50
2017-09-28T23:08:44.441Z,59.50
2017-09-28T23:11:12.334Z,59.70
2017-09-28T23:13:40.272Z,59.80
2017-09-28T23:16:08.317Z,60.20
2017-09-28T23:18:36.195Z,60.00
2017-09-28T23:21:06.946Z,60.50
2017-09-28T23:23:34.955Z,60.40
2017-09-28T23:26:03.072Z,60.20
2017-09-28T23:28:30.968Z,60.40
2017-09-28T23:30:59.638Z,59.90
2017-09-28T23:33:27.546Z,59.90
2017-09-28T23:35:55.546Z,60.10
2017-09-28T23:38:23.514Z,60.50
2017-09-28T23:40:51.412Z,61.10
2017-09-28T23:43:19.333Z,61.20
2017-09-28T23:45:56.196Z,60.80
2017-09-28T23:48:24.152Z,60.70
2017-09-28T23:50:52.097Z,60.60
2017-09-28T23:53:20.487Z,60.40
2017-09-28T23:55:48.547Z,60.50
2017-09-28T23:58:16.484Z,60.70
